createdAt,value
2022-08-05T00:19:09.567Z,1014.06
2022-08-05T00:48:06.253Z,1013.97
2022-08-05T01:16:27.086Z,1013.85
2022-08-05T01:44:38.780Z,1014.01
2022-08-05T02:13:17.837Z,1014.41
2022-08-05T02:42:01.070Z,1014.02
2022-08-05T03:09:58.922Z,1013.84
2022-08-05T03:38:15.071Z,1014.42
2022-08-05T04:06:29.837Z,1015.46
2022-08-05T04:34:54.118Z,1016.93
2022-08-05T05:03:07.246Z,1017.19
2022-08-05T05:59:29.074Z,1016.97
2022-08-05T06:28:21.022Z,1017.62
2022-08-05T06:56:35.584Z,1017.73
2022-08-05T07:25:54.602Z,1017.7
2022-08-05T07:53:51.968Z,1017.13
2022-08-05T08:22:16.121Z,1016.68
2022-08-05T08:51:04.431Z,1016.43
2022-08-05T09:19:15.121Z,1016.74
2022-08-05T09:48:21.317Z,1016.77
2022-08-05T10:17:37.123Z,1016.63
2022-08-05T10:45:43.340Z,1016.59
2022-08-05T11:14:13.925Z,1016.45
2022-08-05T11:43:58.565Z,1016.36
2022-08-05T12:11:52.788Z,1016.26
2022-08-05T12:41:04.693Z,1016.23
2022-08-05T13:10:13.075Z,1016.18
2022-08-05T13:22:30.324Z,1016.25
2022-08-05T13:50:55.849Z,1016.32
2022-08-05T14:20:08.352Z,1016.67
2022-08-05T14:48:34.254Z,1016.83
2022-08-05T15:16:51.829Z,1017.08
2022-08-05T15:46:03.835Z,1017.42
2022-08-05T16:14:29.952Z,1017.64
2022-08-05T16:43:32.159Z,1017.8
2022-08-05T17:12:52.454Z,1017.79
2022-08-05T17:41:03.354Z,1017.94
2022-08-05T18:10:20.642Z,1018.07
2022-08-05T18:38:28.481Z,1018.51
2022-08-05T19:07:08.946Z,1019.44
2022-08-05T19:35:58.015Z,1020.06
2022-08-05T20:04:09.595Z,1020.57
2022-08-05T20:32:46.866Z,1021.01
2022-08-05T21:01:39.449Z,1021.41
2022-08-05T21:29:51.609Z,1021.48
2022-08-05T21:58:12.379Z,1021.75
2022-08-05T22:26:38.785Z,1022.03
2022-08-05T22:55:37.040Z,1022.56
2022-08-05T23:23:52.848Z,1022.42
2022-08-05T23:52:28.620Z,1022.45
